sensor_id;sensor_type;location;lat;lon;timestamp;pressure;altitude;pressure_sealevel;temperature;humidity
80242;BME280;69556;45.004;7.532;2024-01-11T08:47:47;99437.00;;;3.78;90.14
80242;BME280;69556;45.004;7.532;2024-01-11T08:50:17;99434.44;;;3.81;88.96
80242;BME280;69556;45.004;7.532;2024-01-11T08:52:43;99438.81;;;3.87;88.72
80242;BME280;69556;45.004;7.532;2024-01-11T08:55:08;99444.09;;;3.97;88.85
80242;BME280;69556;45.004;7.532;2024-01-11T08:57:34;99446.72;;;4.02;87.61
80242;BME280;69556;45.004;7.532;2024-01-11T09:00:03;99442.41;;;4.06;87.42
80242;BME280;69556;45.004;7.532;2024-01-11T09:02:31;99439.78;;;4.07;86.74
80242;BME280;69556;45.004;7.532;2024-01-11T09:04:56;99440.69;;;4.12;86.95
80242;BME280;69556;45.004;7.532;2024-01-11T09:07:22;99444.16;;;4.08;89.99
80242;BME280;69556;45.004;7.532;2024-01-11T09:09:47;99441.50;;;4.02;91.79
80242;BME280;69556;45.004;7.532;2024-01-11T09:12:12;99446.72;;;3.99;92.21
80242;BME280;69556;45.004;7.532;2024-01-11T09:14:38;99433.63;;;3.94;90.06
80242;BME280;69556;45.004;7.532;2024-01-11T09:17:04;99438.06;;;4.09;90.29
80242;BME280;69556;45.004;7.532;2024-01-11T09:19:32;99441.56;;;4.11;92.26
80242;BME280;69556;45.004;7.532;2024-01-11T09:21:59;99445.97;;;4.15;92.27
80242;BME280;69556;45.004;7.532;2024-01-11T09:24:24;99441.56;;;4.10;92.84
80242;BME280;69556;45.004;7.532;2024-01-11T09:26:50;99442.44;;;4.16;92.22
80242;BME280;69556;45.004;7.532;2024-01-11T09:29:16;99446.81;;;4.20;92.88
80242;BME280;69556;45.004;7.532;2024-01-11T09:31:41;99449.47;;;4.25;92.15
80242;BME280;69556;45.004;7.532;2024-01-11T09:34:07;99443.34;;;4.18;92.49
80242;BME280;69556;45.004;7.532;2024-01-11T09:36:33;99434.66;;;4.19;92.50
80242;BME280;69556;45.004;7.532;2024-01-11T09:38:58;99435.50;;;4.18;92.09
80242;BME280;69556;45.004;7.532;2024-01-11T09:41:24;99436.38;;;4.20;91.90
80242;BME280;69556;45.004;7.532;2024-01-11T09:43:54;99434.69;;;4.31;91.05
80242;BME280;69556;45.004;7.532;2024-01-11T09:46:19;99439.97;;;4.37;91.10
80242;BME280;69556;45.004;7.532;2024-01-11T09:48:46;99431.19;;;4.29;90.68
80242;BME280;69556;45.004;7.532;2024-01-11T09:51:13;99431.22;;;4.35;90.13
80242;BME280;69556;45.004;7.532;2024-01-11T09:53:39;99434.72;;;4.37;89.15
80242;BME280;69556;45.004;7.532;2024-01-11T09:56:08;99436.53;;;4.48;87.83
80242;BME280;69556;45.004;7.532;2024-01-11T09:58:35;99437.34;;;4.43;87.24
80242;BME280;69556;45.004;7.532;2024-01-11T10:01:08;99428.66;;;4.44;86.99
80242;BME280;69556;45.004;7.532;2024-01-11T10:03:34;99417.38;;;4.55;86.95
80242;BME280;69556;45.004;7.532;2024-01-11T10:06:00;99425.22;;;4.62;87.40
80242;BME280;69556;45.004;7.532;2024-01-11T10:08:27;99416.50;;;4.63;87.19
80242;BME280;69556;45.004;7.532;2024-01-11T10:10:52;99423.50;;;4.64;86.69
80242;BME280;69556;45.004;7.532;2024-01-11T10:13:18;99415.66;;;4.67;88.03
80242;BME280;69556;45.004;7.532;2024-01-11T10:15:44;99416.53;;;4.72;87.57
80242;BME280;69556;45.004;7.532;2024-01-11T10:18:09;99411.31;;;4.77;86.88
80242;BME280;69556;45.004;7.532;2024-01-11T10:20:35;99409.63;;;4.85;85.39
80242;BME280;69556;45.004;7.532;2024-01-11T10:23:02;99407.88;;;4.87;84.16
80242;BME280;69556;45.004;7.532;2024-01-11T10:25:30;99404.38;;;4.86;84.07
80242;BME280;69556;45.004;7.532;2024-01-11T10:27:56;99395.66;;;4.87;84.32
80242;BME280;69556;45.004;7.532;2024-01-11T10:30:22;99395.66;;;4.95;84.43
80242;BME280;69556;45.004;7.532;2024-01-11T10:32:49;99400.03;;;5.02;84.74
80242;BME280;69556;45.004;7.532;2024-01-11T10:35:15;99390.44;;;4.97;83.83
80242;BME280;69556;45.004;7.532;2024-01-11T10:37:44;99391.31;;;5.05;84.14
80242;BME280;69556;45.004;7.532;2024-01-11T10:40:10;99388.69;;;5.14;83.12
80242;BME280;69556;45.004;7.532;2024-01-11T10:42:42;99381.75;;;5.17;83.41
80242;BME280;69556;45.004;7.532;2024-01-11T10:45:19;99387.84;;;5.25;83.40
80242;BME280;69556;45.004;7.532;2024-01-11T10:47:55;99378.25;;;5.30;82.44
80242;BME280;69556;45.004;7.532;2024-01-11T10:50:25;99377.38;;;5.35;83.31
80242;BME280;69556;45.004;7.532;2024-01-11T10:53:02;99370.41;;;5.40;84.02
80242;BME280;69556;45.004;7.532;2024-01-11T10:55:31;99367.78;;;5.44;83.10
80242;BME280;69556;45.004;7.532;2024-01-11T10:57:58;99370.38;;;5.43;81.88
80242;BME280;69556;45.004;7.532;2024-01-11T11:00:25;99366.03;;;5.37;82.46
80242;BME280;69556;45.004;7.532;2024-01-11T11:02:51;99365.16;;;5.44;83.59
80242;BME280;69556;45.004;7.532;2024-01-11T11:05:18;99358.16;;;5.48;82.91
80242;BME280;69556;45.004;7.532;2024-01-11T11:07:47;99356.41;;;5.59;83.19
80242;BME280;69556;45.004;7.532;2024-01-11T11:10:15;99359.00;;;5.71;83.26
80242;BME280;69556;45.004;7.532;2024-01-11T11:12:48;99350.25;;;5.78;79.57
80242;BME280;69556;45.004;7.532;2024-01-11T11:15:13;99330.16;;;5.80;79.20
80242;BME280;69556;45.004;7.532;2024-01-11T11:17:43;99336.28;;;5.91;81.26
80242;BME280;69556;45.004;7.532;2024-01-11T11:20:10;99334.53;;;5.83;81.37
80242;BME280;69556;45.004;7.532;2024-01-11T11:22:37;99319.69;;;5.83;82.08
80242;BME280;69556;45.004;7.532;2024-01-11T11:25:09;99319.66;;;5.85;82.17
80242;BME280;69556;45.004;7.532;2024-01-11T11:27:37;99326.66;;;5.81;81.69
80242;BME280;69556;45.004;7.532;2024-01-11T11:30:06;99310.94;;;5.90;82.75
80242;BME280;69556;45.004;7.532;2024-01-11T11:32:38;99308.34;;;5.83;82.41
80242;BME280;69556;45.004;7.532;2024-01-11T11:35:05;99308.34;;;5.70;81.57
80242;BME280;69556;45.004;7.532;2024-01-11T11:37:30;99309.19;;;5.89;81.62
80242;BME280;69556;45.004;7.532;2024-01-11T11:39:58;99297.84;;;5.84;81.48
80242;BME280;69556;45.004;7.532;2024-01-11T11:42:24;99301.34;;;5.91;80.20
80242;BME280;69556;45.004;7.532;2024-01-11T11:44:51;99294.34;;;5.93;80.52
80242;BME280;69556;45.004;7.532;2024-01-11T11:47:21;99296.94;;;5.97;82.19
80242;BME280;69556;45.004;7.532;2024-01-11T11:50:10;99298.66;;;6.04;82.05
80242;BME280;69556;45.004;7.532;2024-01-11T11:52:39;99288.19;;;6.06;81.31
80242;BME280;69556;45.004;7.532;2024-01-11T11:55:06;99286.44;;;6.06;81.47
80242;BME280;69556;45.004;7.532;2024-01-11T11:57:33;99291.63;;;6.18;81.90
80242;BME280;69556;45.004;7.532;2024-01-11T11:59:58;99286.31;;;6.29;81.66
80242;BME280;69556;45.004;7.532;2024-01-11T12:02:27;99288.06;;;6.26;80.05
80242;BME280;69556;45.004;7.532;2024-01-11T12:04:53;99284.53;;;6.33;80.56
80242;BME280;69556;45.004;7.532;2024-01-11T12:07:22;99275.75;;;6.40;79.06
80242;BME280;69556;45.004;7.532;2024-01-11T12:09:49;99281.88;;;6.42;78.87
80242;BME280;69556;45.004;7.532;2024-01-11T12:12:15;99276.69;;;6.33;79.11
80242;BME280;69556;45.004;7.532;2024-01-11T12:14:42;99273.16;;;6.38;79.81
80242;BME280;69556;45.004;7.532;2024-01-11T12:17:08;99276.63;;;6.43;79.92
80242;BME280;69556;45.004;7.532;2024-01-11T12:19:34;99268.75;;;6.40;79.96
80242;BME280;69556;45.004;7.532;2024-01-11T12:21:59;99271.34;;;6.48;79.27
80242;BME280;69556;45.004;7.532;2024-01-11T12:24:25;99259.91;;;6.56;78.29
80242;BME280;69556;45.004;7.532;2024-01-11T12:26:50;99249.41;;;6.58;77.70
80242;BME280;69556;45.004;7.532;2024-01-11T12:29:19;99253.72;;;6.65;77.00
80242;BME280;69556;45.004;7.532;2024-01-11T12:31:45;99258.09;;;6.66;78.26
80242;BME280;69556;45.004;7.532;2024-01-11T12:34:11;99259.91;;;6.56;78.09
80242;BME280;69556;45.004;7.532;2024-01-11T12:36:37;99251.25;;;6.47;77.90
80242;BME280;69556;45.004;7.532;2024-01-11T12:39:03;99242.50;;;6.46;79.18
80242;BME280;69556;45.004;7.532;2024-01-11T12:41:30;99243.38;;;6.45;77.64
80242;BME280;69556;45.004;7.532;2024-01-11T12:43:56;99241.63;;;6.46;76.86
80242;BME280;69556;45.004;7.532;2024-01-11T12:46:22;99234.63;;;6.46;76.62
80242;BME280;69556;45.004;7.532;2024-01-11T12:48:48;99232.84;;;6.53;75.57
80242;BME280;69556;45.004;7.532;2024-01-11T12:51:16;99225.78;;;6.59;78.56
80242;BME280;69556;45.004;7.532;2024-01-11T12:53:45;99219.63;;;6.67;77.07
80242;BME280;69556;45.004;7.532;2024-01-11T12:56:14;99222.13;;;6.77;76.02
80242;BME280;69556;45.004;7.532;2024-01-11T12:58:40;99222.84;;;6.97;76.45
80242;BME280;69556;45.004;7.532;2024-01-11T13:01:06;99221.91;;;7.03;75.49
80242;BME280;69556;45.004;7.532;2024-01-11T13:03:37;99211.41;;;7.04;74.89
80242;BME280;69556;45.004;7.532;2024-01-11T13:06:02;99208.69;;;7.14;76.49
80242;BME280;69556;45.004;7.532;2024-01-11T13:08:33;99198.13;;;7.20;74.37
80242;BME280;69556;45.004;7.532;2024-01-11T13:11:01;99202.47;;;7.21;74.77
80242;BME280;69556;45.004;7.532;2024-01-11T13:13:30;99194.72;;;7.12;74.97
80242;BME280;69556;45.004;7.532;2024-01-11T13:15:56;99189.41;;;7.16;74.49
80242;BME280;69556;45.004;7.532;2024-01-11T13:18:21;99176.13;;;7.31;75.10
80242;BME280;69556;45.004;7.532;2024-01-11T13:20:46;99169.19;;;7.24;75.21
80242;BME280;69556;45.004;7.532;2024-01-11T13:23:20;99177.81;;;7.37;74.64
80242;BME280;69556;45.004;7.532;2024-01-11T13:25:49;99169.03;;;7.38;74.52
80242;BME280;69556;45.004;7.532;2024-01-11T13:28:15;99160.19;;;7.46;74.26
80242;BME280;69556;45.004;7.532;2024-01-11T13:30:43;99153.19;;;7.45;72.96
80242;BME280;69556;45.004;7.532;2024-01-11T13:33:09;99149.63;;;7.51;73.52
80242;BME280;69556;45.004;7.532;2024-01-11T13:35:36;99143.50;;;7.49;73.63
80242;BME280;69556;45.004;7.532;2024-01-11T13:38:02;99149.56;;;7.56;73.51
80242;BME280;69556;45.004;7.532;2024-01-11T13:40:29;99143.44;;;7.53;72.65
80242;BME280;69556;45.004;7.532;2024-01-11T13:42:55;99150.50;;;7.50;73.06
80242;BME280;69556;45.004;7.532;2024-01-11T13:45:21;99145.13;;;7.58;73.38
80242;BME280;69556;45.004;7.532;2024-01-11T13:47:47;99143.25;;;7.67;73.71
80242;BME280;69556;45.004;7.532;2024-01-11T13:50:12;99142.94;;;7.91;71.32
80242;BME280;69556;45.004;7.532;2024-01-11T13:52:38;99146.44;;;7.92;69.55
80242;BME280;69556;45.004;7.532;2024-01-11T13:55:03;99151.06;;;7.73;69.48
80242;BME280;69556;45.004;7.532;2024-01-11T13:57:29;99150.91;;;7.84;70.77
80242;BME280;69556;45.004;7.532;2024-01-11T13:59:54;99144.59;;;7.97;71.59
80242;BME280;69556;45.004;7.532;2024-01-11T14:02:25;99142.72;;;8.07;69.85
80242;BME280;69556;45.004;7.532;2024-01-11T14:04:50;99137.13;;;8.28;70.90
80242;BME280;69556;45.004;7.532;2024-01-11T14:07:16;99137.88;;;8.36;70.03
80242;BME280;69556;45.004;7.532;2024-01-11T14:09:41;99134.69;;;8.16;68.79
80242;BME280;69556;45.004;7.532;2024-01-11T14:12:07;99141.38;;;8.38;68.71
80242;BME280;69556;45.004;7.532;2024-01-11T14:14:33;99136.19;;;8.32;68.32
80242;BME280;69556;45.004;7.532;2024-01-11T14:16:58;99134.38;;;8.37;68.63
80242;BME280;69556;45.004;7.532;2024-01-11T14:19:23;99136.59;;;8.60;68.34
80242;BME280;69556;45.004;7.532;2024-01-11T14:21:48;99134.84;;;8.60;68.77
80242;BME280;69556;45.004;7.532;2024-01-11T14:24:14;99127.69;;;8.68;67.83
80242;BME280;69556;45.004;7.532;2024-01-11T14:26:40;99127.66;;;8.71;68.23
80242;BME280;69556;45.004;7.532;2024-01-11T14:29:08;99125.22;;;8.59;67.25
80242;BME280;69556;45.004;7.532;2024-01-11T14:31:34;99123.50;;;8.58;67.21
80242;BME280;69556;45.004;7.532;2024-01-11T14:33:59;99125.09;;;8.67;67.10
80242;BME280;69556;45.004;7.532;2024-01-11T14:36:25;99123.09;;;8.81;67.00
80242;BME280;69556;45.004;7.532;2024-01-11T14:38:50;99116.09;;;8.80;67.51
80242;BME280;69556;45.004;7.532;2024-01-11T14:41:16;99113.38;;;8.84;67.43
80242;BME280;69556;45.004;7.532;2024-01-11T14:43:41;99113.72;;;9.11;67.86
80242;BME280;69556;45.004;7.532;2024-01-11T14:46:06;99115.56;;;9.06;67.42
80242;BME280;69556;45.004;7.532;2024-01-11T14:48:35;99115.44;;;9.13;66.43
80242;BME280;69556;45.004;7.532;2024-01-11T14:51:00;99117.19;;;9.14;66.84
80242;BME280;69556;45.004;7.532;2024-01-11T14:53:25;99115.34;;;9.18;67.70
80242;BME280;69556;45.004;7.532;2024-01-11T14:55:51;99113.53;;;9.20;67.34
80242;BME280;69556;45.004;7.532;2024-01-11T14:58:16;99114.56;;;9.14;66.60
80242;BME280;69556;45.004;7.532;2024-01-11T15:00:42;99109.31;;;9.11;66.77
80242;BME280;69556;45.004;7.532;2024-01-11T15:03:07;99111.94;;;9.14;67.24
80242;BME280;69556;45.004;7.532;2024-01-11T15:05:32;99106.06;;;9.00;66.60
80242;BME280;69556;45.004;7.532;2024-01-11T15:07:58;99107.34;;;8.78;67.60
80242;BME280;69556;45.004;7.532;2024-01-11T15:10:25;99105.34;;;8.43;69.30
80242;BME280;69556;45.004;7.532;2024-01-11T15:12:51;99103.84;;;8.25;71.04
80242;BME280;69556;45.004;7.532;2024-01-11T15:15:16;99105.97;;;8.02;70.10
80242;BME280;69556;45.004;7.532;2024-01-11T15:17:43;99105.47;;;7.79;72.06
80242;BME280;69556;45.004;7.532;2024-01-11T15:20:09;99100.41;;;7.64;72.97
80242;BME280;69556;45.004;7.532;2024-01-11T15:22:35;99104.97;;;7.51;73.85
80242;BME280;69556;45.004;7.532;2024-01-11T15:25:00;99113.09;;;7.30;74.95
80242;BME280;69556;45.004;7.532;2024-01-11T15:27:26;99121.09;;;7.21;75.09
80242;BME280;69556;45.004;7.532;2024-01-11T15:29:51;99111.63;;;7.09;76.21
80242;BME280;69556;45.004;7.532;2024-01-11T15:32:16;99121.25;;;7.05;76.37
80242;BME280;69556;45.004;7.532;2024-01-11T15:34:42;99115.22;;;6.99;76.62
80242;BME280;69556;45.004;7.532;2024-01-11T15:37:07;99122.31;;;6.91;77.77
80242;BME280;69556;45.004;7.532;2024-01-11T15:39:33;99121.63;;;6.74;78.17
80242;BME280;69556;45.004;7.532;2024-01-11T15:41:59;99118.22;;;6.64;78.91
80242;BME280;69556;45.004;7.532;2024-01-11T15:44:28;99113.94;;;6.55;79.67
80242;BME280;69556;45.004;7.532;2024-01-11T15:46:54;99113.97;;;6.49;79.86
80242;BME280;69556;45.004;7.532;2024-01-11T15:49:20;99113.19;;;6.40;80.77
80242;BME280;69556;45.004;7.532;2024-01-11T15:51:45;99102.81;;;6.28;81.39
80242;BME280;69556;45.004;7.532;2024-01-11T15:54:10;99106.38;;;6.17;82.22
80242;BME280;69556;45.004;7.532;2024-01-11T15:56:36;99113.41;;;6.12;82.19
80242;BME280;69556;45.004;7.532;2024-01-11T15:59:01;99110.06;;;5.95;83.01
80242;BME280;69556;45.004;7.532;2024-01-11T16:01:28;99109.22;;;5.90;83.18
80242;BME280;69556;45.004;7.532;2024-01-11T16:03:54;99112.78;;;5.77;84.06
80242;BME280;69556;45.004;7.532;2024-01-11T16:06:19;99111.09;;;5.67;84.34
80242;BME280;69556;45.004;7.532;2024-01-11T16:08:44;99115.47;;;5.62;85.46
80242;BME280;69556;45.004;7.532;2024-01-11T16:11:12;99118.97;;;5.61;85.13
80242;BME280;69556;45.004;7.532;2024-01-11T16:13:38;99117.28;;;5.54;86.12
80242;BME280;69556;45.004;7.532;2024-01-11T16:16:05;99117.31;;;5.48;86.41
80242;BME280;69556;45.004;7.532;2024-01-11T16:18:34;99119.09;;;5.37;86.62
80242;BME280;69556;45.004;7.532;2024-01-11T16:20:59;99123.50;;;5.28;87.23
80242;BME280;69556;45.004;7.532;2024-01-11T16:23:24;99122.63;;;5.23;87.19
80242;BME280;69556;45.004;7.532;2024-01-11T16:25:51;99116.56;;;5.15;87.58
80242;BME280;69556;45.004;7.532;2024-01-11T16:28:17;99116.63;;;5.08;87.87
80242;BME280;69556;45.004;7.532;2024-01-11T16:30:43;99113.13;;;5.06;88.13
80242;BME280;69556;45.004;7.532;2024-01-11T16:33:10;99111.41;;;5.02;88.67
80242;BME280;69556;45.004;7.532;2024-01-11T16:35:35;99111.44;;;4.94;88.89
80242;BME280;69556;45.004;7.532;2024-01-11T16:38:01;99109.69;;;4.87;89.10
80242;BME280;69556;45.004;7.532;2024-01-11T16:40:28;99113.19;;;4.81;89.83
80242;BME280;69556;45.004;7.532;2024-01-11T16:42:53;99101.88;;;4.76;89.94
80242;BME280;69556;45.004;7.532;2024-01-11T16:45:19;99096.66;;;4.72;90.09
80242;BME280;69556;45.004;7.532;2024-01-11T16:47:44;99094.03;;;4.67;90.12
80242;BME280;69556;45.004;7.532;2024-01-11T16:50:09;99096.69;;;4.60;90.92
80242;BME280;69556;45.004;7.532;2024-01-11T16:52:35;99105.41;;;4.59;91.18
80242;BME280;69556;45.004;7.532;2024-01-11T16:55:00;99106.28;;;4.52;91.10
80242;BME280;69556;45.004;7.532;2024-01-11T16:57:26;99105.41;;;4.51;91.46
80242;BME280;69556;45.004;7.532;2024-01-11T16:59:52;99108.91;;;4.39;91.94
80242;BME280;69556;45.004;7.532;2024-01-11T17:02:19;99108.91;;;4.36;92.26
80242;BME280;69556;45.004;7.532;2024-01-11T17:04:45;99096.72;;;4.31;92.32
80242;BME280;69556;45.004;7.532;2024-01-11T17:07:10;99107.16;;;4.29;91.93
80242;BME280;69556;45.004;7.532;2024-01-11T17:09:36;99103.72;;;4.24;92.12
80242;BME280;69556;45.004;7.532;2024-01-11T17:12:01;99093.25;;;4.18;92.10
80242;BME280;69556;45.004;7.532;2024-01-11T17:14:26;99100.22;;;4.10;92.85
80242;BME280;69556;45.004;7.532;2024-01-11T17:16:52;99095.88;;;4.05;92.74
80242;BME280;69556;45.004;7.532;2024-01-11T17:19:17;99093.25;;;4.00;93.49
80242;BME280;69556;45.004;7.532;2024-01-11T17:21:43;99094.09;;;3.88;94.17
80242;BME280;69556;45.004;7.532;2024-01-11T17:24:08;99101.06;;;3.80;93.81
80242;BME280;69556;45.004;7.532;2024-01-11T17:26:33;99104.53;;;3.72;94.21
80242;BME280;69556;45.004;7.532;2024-01-11T17:28:59;99099.31;;;3.69;95.31
80242;BME280;69556;45.004;7.532;2024-01-11T17:31:24;99108.03;;;3.75;94.95
80242;BME280;69556;45.004;7.532;2024-01-11T17:33:50;99097.56;;;3.71;95.02
80242;BME280;69556;45.004;7.532;2024-01-11T17:36:16;99105.41;;;3.71;95.47
80242;BME280;69556;45.004;7.532;2024-01-11T17:38:41;99097.59;;;3.68;95.02
80242;BME280;69556;45.004;7.532;2024-01-11T17:41:07;99101.88;;;3.60;95.31
80242;BME280;69556;45.004;7.532;2024-01-11T17:43:32;99112.34;;;3.60;95.79
80242;BME280;69556;45.004;7.532;2024-01-11T17:46:03;99108.88;;;3.61;95.94
80242;BME280;69556;45.004;7.532;2024-01-11T17:48:29;99103.66;;;3.54;95.80
80242;BME280;69556;45.004;7.532;2024-01-11T17:50:54;99105.38;;;3.54;95.75
80242;BME280;69556;45.004;7.532;2024-01-11T17:53:20;99101.88;;;3.50;96.63
80242;BME280;69556;45.004;7.532;2024-01-11T17:55:45;99105.38;;;3.49;96.18
80242;BME280;69556;45.004;7.532;2024-01-11T17:58:11;99098.38;;;3.50;96.21
80242;BME280;69556;45.004;7.532;2024-01-11T18:00:36;99096.66;;;3.47;97.03
80242;BME280;69556;45.004;7.532;2024-01-11T18:03:03;99094.06;;;3.44;96.86
80242;BME280;69556;45.004;7.532;2024-01-11T18:05:28;99096.66;;;3.40;97.07
80242;BME280;69556;45.004;7.532;2024-01-11T18:07:54;99091.41;;;3.35;96.89
80242;BME280;69556;45.004;7.532;2024-01-11T18:10:21;99094.03;;;3.35;96.81
80242;BME280;69556;45.004;7.532;2024-01-11T18:12:46;99096.59;;;3.28;97.04
80242;BME280;69556;45.004;7.532;2024-01-11T18:15:12;99098.31;;;3.18;97.44
80242;BME280;69556;45.004;7.532;2024-01-11T18:17:38;99101.75;;;3.14;97.17
80242;BME280;69556;45.004;7.532;2024-01-11T18:20:07;99100.91;;;3.12;97.38
80242;BME280;69556;45.004;7.532;2024-01-11T18:22:32;99100.00;;;3.07;97.27
80242;BME280;69556;45.004;7.532;2024-01-11T18:24:58;99108.72;;;3.10;97.49
80242;BME280;69556;45.004;7.532;2024-01-11T18:27:23;99108.69;;;3.09;97.63
80242;BME280;69556;45.004;7.532;2024-01-11T18:29:49;99101.72;;;3.03;98.10
80242;BME280;69556;45.004;7.532;2024-01-11T18:32:14;99099.94;;;2.92;97.98
80242;BME280;69556;45.004;7.532;2024-01-11T18:34:39;99102.53;;;2.92;98.14
80242;BME280;69556;45.004;7.532;2024-01-11T18:37:05;99099.91;;;2.87;98.55
80242;BME280;69556;45.004;7.532;2024-01-11T18:39:30;99099.88;;;2.81;98.15
80242;BME280;69556;45.004;7.532;2024-01-11T18:41:56;99099.84;;;2.77;97.90
80242;BME280;69556;45.004;7.532;2024-01-11T18:44:23;99096.38;;;2.75;98.20
80242;BME280;69556;45.004;7.532;2024-01-11T18:46:49;99098.94;;;2.67;99.05
80242;BME280;69556;45.004;7.532;2024-01-11T18:49:14;99100.69;;;2.68;98.76
80242;BME280;69556;45.004;7.532;2024-01-11T18:51:42;99094.56;;;2.63;98.94
80242;BME280;69556;45.004;7.532;2024-01-11T18:54:07;99109.38;;;2.69;98.91
80242;BME280;69556;45.004;7.532;2024-01-11T18:56:33;99112.03;;;2.75;98.54
80242;BME280;69556;45.004;7.532;2024-01-11T18:58:59;99108.59;;;2.83;98.60
80242;BME280;69556;45.004;7.532;2024-01-11T19:01:24;99111.22;;;2.88;97.92
80242;BME280;69556;45.004;7.532;2024-01-11T19:03:51;99103.38;;;2.85;97.85
80242;BME280;69556;45.004;7.532;2024-01-11T19:06:17;99099.00;;;2.75;97.78
80242;BME280;69556;45.004;7.532;2024-01-11T19:08:43;99102.47;;;2.77;97.57
80242;BME280;69556;45.004;7.532;2024-01-11T19:11:08;99109.41;;;2.70;97.67
80242;BME280;69556;45.004;7.532;2024-01-11T19:13:34;99110.22;;;2.64;98.15
80242;BME280;69556;45.004;7.532;2024-01-11T19:15:59;99108.41;;;2.54;97.68
80242;BME280;69556;45.004;7.532;2024-01-11T19:18:25;99104.09;;;2.56;97.99
80242;BME280;69556;45.004;7.532;2024-01-11T19:20:50;99106.66;;;2.53;98.37
80242;BME280;69556;45.004;7.532;2024-01-11T19:23:19;99109.22;;;2.47;98.66
80242;BME280;69556;45.004;7.532;2024-01-11T19:25:46;99110.94;;;2.38;98.72
80242;BME280;69556;45.004;7.532;2024-01-11T19:28:11;99110.91;;;2.33;98.74
80242;BME280;69556;45.004;7.532;2024-01-11T19:30:37;99116.06;;;2.29;99.22
80242;BME280;69556;45.004;7.532;2024-01-11T19:33:03;99124.72;;;2.23;98.99
80242;BME280;69556;45.004;7.532;2024-01-11T19:35:30;99123.81;;;2.24;99.48
80242;BME280;69556;45.004;7.532;2024-01-11T19:37:55;99129.88;;;2.20;99.36
80242;BME280;69556;45.004;7.532;2024-01-11T19:40:21;99130.72;;;2.16;99.75
80242;BME280;69556;45.004;7.532;2024-01-11T19:42:46;99135.03;;;2.12;99.59
80242;BME280;69556;45.004;7.532;2024-01-11T19:45:12;99141.09;;;2.10;99.96
80242;BME280;69556;45.004;7.532;2024-01-11T19:47:38;99141.03;;;2.07;99.76
80242;BME280;69556;45.004;7.532;2024-01-11T19:50:05;99141.03;;;2.04;99.95
80242;BME280;69556;45.004;7.532;2024-01-11T19:52:30;99159.25;;;2.04;100.00
80242;BME280;69556;45.004;7.532;2024-01-11T19:54:57;99160.97;;;2.00;99.71
80242;BME280;69556;45.004;7.532;2024-01-11T19:57:22;99156.66;;;2.04;100.00
80242;BME280;69556;45.004;7.532;2024-01-11T19:59:48;99160.09;;;2.03;100.00
80242;BME280;69556;45.004;7.532;2024-01-11T20:02:13;99163.59;;;2.03;100.00
80242;BME280;69556;45.004;7.532;2024-01-11T20:04:38;99167.91;;;2.03;100.00
80242;BME280;69556;45.004;7.532;2024-01-11T20:07:04;99163.56;;;2.02;100.00
80242;BME280;69556;45.004;7.532;2024-01-11T20:09:29;99168.81;;;2.05;100.00
80242;BME280;69556;45.004;7.532;2024-01-11T20:11:55;99174.03;;;2.08;99.88
80242;BME280;69556;45.004;7.532;2024-01-11T20:14:20;99172.31;;;2.08;100.00
80242;BME280;69556;45.004;7.532;2024-01-11T20:16:45;99171.41;;;2.06;100.00
80242;BME280;69556;45.004;7.532;2024-01-11T20:19:11;99175.78;;;2.07;100.00
80242;BME280;69556;45.004;7.532;2024-01-11T20:21:36;99174.88;;;2.04;100.00
80242;BME280;69556;45.004;7.532;2024-01-11T20:24:01;99175.72;;;2.00;100.00
80242;BME280;69556;45.004;7.532;2024-01-11T20:26:27;99175.63;;;1.91;99.93
80242;BME280;69556;45.004;7.532;2024-01-11T20:28:52;99175.63;;;1.94;100.00
80242;BME280;69556;45.004;7.532;2024-01-11T20:31:17;99181.66;;;1.87;99.91
80242;BME280;69556;45.004;7.532;2024-01-11T20:33:43;99185.88;;;1.78;99.90
80242;BME280;69556;45.004;7.532;2024-01-11T20:36:08;99188.47;;;1.75;100.00
80242;BME280;69556;45.004;7.532;2024-01-11T20:38:34;99184.09;;;1.71;100.00
80242;BME280;69556;45.004;7.532;2024-01-11T20:41:00;99186.69;;;1.73;100.00
80242;BME280;69556;45.004;7.532;2024-01-11T20:43:27;99187.56;;;1.72;99.73
80242;BME280;69556;45.004;7.532;2024-01-11T20:45:53;99196.28;;;1.75;99.72
80242;BME280;69556;45.004;7.532;2024-01-11T20:48:18;99184.91;;;1.67;99.92
80242;BME280;69556;45.004;7.532;2024-01-11T20:50:44;99197.03;;;1.68;100.00
80242;BME280;69556;45.004;7.532;2024-01-11T20:53:10;99194.41;;;1.64;99.61
80242;BME280;69556;45.004;7.532;2024-01-11T20:55:35;99194.34;;;1.59;99.36
80242;BME280;69556;45.004;7.532;2024-01-11T20:58:00;99195.16;;;1.55;99.61
80242;BME280;69556;45.004;7.532;2024-01-11T21:00:26;99190.00;;;1.57;100.00
80242;BME280;69556;45.004;7.532;2024-01-11T21:02:52;99185.63;;;1.53;99.72
80242;BME280;69556;45.004;7.532;2024-01-11T21:05:19;99194.19;;;1.44;100.00
80242;BME280;69556;45.004;7.532;2024-01-11T21:07:45;99190.66;;;1.39;99.84
80242;BME280;69556;45.004;7.532;2024-01-11T21:10:10;99192.41;;;1.42;99.50
80242;BME280;69556;45.004;7.532;2024-01-11T21:12:35;99188.94;;;1.41;99.86
80242;BME280;69556;45.004;7.532;2024-01-11T21:15:01;99193.19;;;1.36;99.81
80242;BME280;69556;45.004;7.532;2024-01-11T21:17:26;99199.25;;;1.33;100.00
80242;BME280;69556;45.004;7.532;2024-01-11T21:19:51;99195.72;;;1.28;100.00
80242;BME280;69556;45.004;7.532;2024-01-11T21:22:18;99197.47;;;1.31;100.00
80242;BME280;69556;45.004;7.532;2024-01-11T21:24:43;99188.94;;;1.40;100.00
80242;BME280;69556;45.004;7.532;2024-01-11T21:27:10;99194.19;;;1.44;100.00
80242;BME280;69556;45.004;7.532;2024-01-11T21:29:35;99195.06;;;1.46;100.00
80242;BME280;69556;45.004;7.532;2024-01-11T21:32:01;99184.59;;;1.42;100.00
80242;BME280;69556;45.004;7.532;2024-01-11T21:34:26;99188.16;;;1.48;100.00
80242;BME280;69556;45.004;7.532;2024-01-11T21:36:51;99190.75;;;1.47;100.00
80242;BME280;69556;45.004;7.532;2024-01-11T21:39:17;99185.47;;;1.41;100.00
80242;BME280;69556;45.004;7.532;2024-01-11T21:41:42;99186.28;;;1.37;100.00
80242;BME280;69556;45.004;7.532;2024-01-11T21:44:07;99181.84;;;1.28;100.00
80242;BME280;69556;45.004;7.532;2024-01-11T21:46:33;99186.19;;;1.29;100.00
80242;BME280;69556;45.004;7.532;2024-01-11T21:48:58;99187.13;;;1.36;100.00
80242;BME280;69556;45.004;7.532;2024-01-11T21:51:24;99190.66;;;1.39;100.00